Time;durP1;ratioP1;P1;durP2;ratioP2;P2;SDS_P1;SDS_P2;PMS_P1;PMS_P2;Temp;Humidity;BMP_temperature;BMP_pressure;BME280_temperature;BME280_humidity;BME280_pressure;Samples;Min_cycle;Max_cycle;Signal;HPM_P1;HPM_P2
2023/05/04 00:01:01;;;;;;;2.72;1.80;;;10.40;99.90;;;10.55;95.62;101606.00;5162645;28;20042;-69
2023/05/04 00:03:33;;;;;;;2.25;1.70;;;10.40;99.90;;;10.51;95.31;101601.47;5162690;28;20053;-67
2023/05/04 00:06:05;;;;;;;1.85;1.63;;;10.40;99.90;;;10.45;95.21;101603.78;5163082;28;20046;-69
2023/05/04 00:08:37;;;;;;;2.33;1.65;;;10.30;99.90;;;10.40;95.60;101594.84;5162975;28;20046;-67
2023/05/04 00:11:09;;;;;;;1.88;1.52;;;10.20;99.90;;;10.38;96.28;101590.41;5162804;28;20515;-67
2023/05/04 00:13:42;;;;;;;2.20;1.90;;;10.30;99.90;;;10.34;96.64;101586.72;5162816;28;20047;-67
2023/05/04 00:16:15;;;;;;;2.28;1.80;;;10.20;99.90;;;10.33;96.99;101584.94;5161388;28;20065;-67
2023/05/04 00:18:47;;;;;;;3.35;2.08;;;10.20;99.90;;;10.29;97.22;101588.22;5163017;28;20050;-68
2023/05/04 00:21:19;;;;;;;2.25;1.77;;;10.10;99.90;;;10.26;97.51;101582.88;5162338;28;20101;-68
2023/05/04 00:23:51;;;;;;;3.13;2.15;;;10.10;99.90;;;10.22;97.67;101581.78;5163134;28;20038;-68
2023/05/04 00:26:23;;;;;;;2.75;1.95;;;10.10;99.90;;;10.21;97.74;101585.22;5162330;28;20061;-68
2023/05/04 00:28:56;;;;;;;1.80;1.70;;;10.10;99.90;;;10.18;98.05;101584.19;5163021;28;20065;-68
2023/05/04 00:31:28;;;;;;;2.90;1.90;;;10.00;99.90;;;10.12;98.10;101586.47;5160837;28;20046;-67
2023/05/04 00:34:00;;;;;;;2.28;1.48;;;10.00;99.90;;;10.05;98.46;101583.56;5161583;28;20384;-68
2023/05/04 00:36:33;;;;;;;2.22;1.50;;;9.90;99.90;;;9.99;98.65;101578.06;5162515;28;20418;-67
2023/05/04 00:39:05;;;;;;;2.50;1.90;;;9.90;99.90;;;9.93;98.98;101574.25;5161390;28;20166;-67
2023/05/04 00:41:37;;;;;;;2.63;1.83;;;9.80;99.90;;;9.89;99.14;101573.19;5160978;28;20050;-68
2023/05/04 00:44:10;;;;;;;2.78;2.00;;;9.80;99.90;;;9.83;99.84;101567.69;5161511;28;20049;-68
2023/05/04 00:46:42;;;;;;;2.65;1.85;;;9.70;99.90;;;9.78;99.88;101572.69;5162677;28;20121;-68
2023/05/04 00:49:15;;;;;;;2.25;2.03;;;9.70;99.90;;;9.72;100.00;101561.06;5162110;28;20042;-67
2023/05/04 00:51:48;;;;;;;2.17;1.70;;;9.60;99.90;;;9.71;100.00;101561.84;5161038;28;20054;-68
2023/05/04 00:54:21;;;;;;;3.28;1.85;;;9.60;99.90;;;9.69;100.00;101563.50;5162399;28;20053;-67
2023/05/04 00:56:53;;;;;;;3.08;1.90;;;9.60;99.90;;;9.67;100.00;101563.44;5163115;28;20122;-68
2023/05/04 00:59:27;;;;;;;2.83;1.67;;;9.60;99.90;;;9.65;100.00;101564.16;5160686;28;20053;-68
2023/05/04 01:01:59;;;;;;;1.77;1.55;;;9.60;99.90;;;9.62;100.00;101559.69;5161945;28;20078;-68
2023/05/04 01:04:31;;;;;;;2.17;1.70;;;9.50;99.90;;;9.58;100.00;101549.94;5166534;28;20070;-68
2023/05/04 01:07:12;;;;;;;1.90;1.70;;;9.50;99.90;;;9.54;100.00;101560.13;5165222;28;20053;-68
2023/05/04 01:09:50;;;;;;;4.25;2.25;;;9.40;99.90;;;9.51;100.00;101556.53;5158008;28;20046;-68
2023/05/04 01:12:33;;;;;;;3.35;1.85;;;9.40;99.90;;;9.51;100.00;101555.63;5164506;28;20046;-70
2023/05/04 01:15:10;;;;;;;2.33;2.10;;;9.40;99.90;;;9.51;100.00;101555.63;5166448;28;20035;-68
2023/05/04 01:17:42;;;;;;;2.92;1.90;;;9.40;99.90;;;9.52;100.00;101557.47;5164927;28;20046;-68
2023/05/04 01:20:14;;;;;;;2.88;1.70;;;9.40;99.90;;;9.50;100.00;101559.06;5165856;28;20121;-68
2023/05/04 01:22:47;;;;;;;2.63;1.65;;;9.40;99.90;;;9.46;100.00;101558.03;5164818;28;20046;-67
2023/05/04 01:25:20;;;;;;;2.90;1.90;;;9.30;99.90;;;9.42;100.00;101561.28;5165983;28;20042;-66
2023/05/04 01:27:59;;;;;;;2.20;1.63;;;9.30;99.90;;;9.38;100.00;101548.91;5164798;28;20042;-68
2023/05/04 01:30:37;;;;;;;2.28;1.80;;;9.30;99.90;;;9.37;100.00;101552.34;5165530;28;20470;-69
2023/05/04 01:33:10;;;;;;;2.08;1.60;;;9.30;99.90;;;9.35;100.00;101543.56;5165583;28;20137;-68
2023/05/04 01:35:42;;;;;;;2.13;1.65;;;9.30;99.90;;;9.35;100.00;101547.88;5166315;28;20042;-67
2023/05/04 01:38:16;;;;;;;2.30;1.80;;;9.30;99.90;;;9.35;100.00;101540.06;5164313;28;20051;-68
2023/05/04 01:40:48;;;;;;;3.65;1.95;;;9.20;99.90;;;9.35;100.00;101540.97;5165531;28;20049;-68
2023/05/04 01:43:20;;;;;;;3.35;1.88;;;9.30;99.90;;;9.37;100.00;101544.53;5165148;28;20034;-67
2023/05/04 01:45:52;;;;;;;2.50;1.88;;;9.30;99.90;;;9.38;100.00;101548.03;5165783;28;20403;-69
2023/05/04 01:48:24;;;;;;;2.25;1.80;;;9.30;99.90;;;9.35;100.00;101548.78;5164204;28;20043;-68
2023/05/04 01:50:56;;;;;;;3.50;1.90;;;9.20;99.90;;;9.32;100.00;101539.91;5165801;28;20034;-67
2023/05/04 01:53:31;;;;;;;3.13;2.50;;;9.20;99.90;;;9.31;100.00;101541.59;5164081;28;20168;-68
2023/05/04 01:56:03;;;;;;;3.25;1.83;;;9.20;99.90;;;9.30;100.00;101542.44;5164158;28;20051;-68
2023/05/04 01:58:35;;;;;;;2.30;1.77;;;9.20;99.90;;;9.33;100.00;101540.00;5164190;28;20042;-68
2023/05/04 02:01:08;;;;;;;2.63;1.80;;;9.20;99.90;;;9.35;100.00;101540.97;5163861;28;20124;-68
2023/05/04 02:03:40;;;;;;;2.25;1.73;;;9.20;99.90;;;9.40;100.00;101539.50;5164116;28;20054;-68
2023/05/04 02:06:12;;;;;;;2.08;1.70;;;9.30;99.90;;;9.42;99.37;101536.97;5163738;28;20038;-68
2023/05/04 02:08:46;;;;;;;3.65;2.05;;;9.30;99.90;;;9.46;98.08;101537.22;5164022;28;20050;-68
2023/05/04 02:11:18;;;;;;;2.78;1.80;;;9.40;99.90;;;9.47;96.87;101531.19;5163819;28;20066;-68
2023/05/04 02:13:51;;;;;;;2.58;1.92;;;9.40;99.90;;;9.48;95.21;101535.56;5162955;28;20045;-68
2023/05/04 02:16:23;;;;;;;2.40;1.95;;;9.40;99.90;;;9.52;94.51;101534.91;5165004;28;20046;-68
2023/05/04 02:18:55;;;;;;;1.92;1.70;;;9.40;99.90;;;9.59;93.81;101543.03;5163550;28;20162;-67
2023/05/04 02:21:28;;;;;;;1.73;1.63;;;9.50;99.90;;;9.65;93.16;101544.25;5163179;28;20053;-68
2023/05/04 02:24:03;;;;;;;2.95;1.50;;;9.50;99.90;;;9.71;92.57;101548.84;5165076;28;20089;-68
2023/05/04 02:26:36;;;;;;;1.75;1.65;;;9.60;99.90;;;9.74;92.96;101549.00;5163631;28;20051;-68
2023/05/04 02:29:08;;;;;;;1.77;1.50;;;9.60;99.90;;;9.71;92.91;101544.53;5163650;28;20129;-68
2023/05/04 02:31:40;;;;;;;3.42;1.70;;;9.60;99.90;;;9.68;93.73;101548.69;5163034;28;20414;-69
2023/05/04 02:34:12;;;;;;;3.38;1.75;;;9.60;99.90;;;9.66;94.45;101550.34;5164690;28;20046;-68
2023/05/04 02:36:52;;;;;;;2.70;1.58;;;9.60;99.90;;;9.63;94.86;101544.97;5156869;28;20679;-68
2023/05/04 02:39:25;;;;;;;2.05;1.85;;;9.50;99.90;;;9.59;95.46;101548.25;5163050;28;20600;-68
2023/05/04 02:41:57;;;;;;;2.75;1.70;;;9.50;99.90;;;9.54;95.84;101550.59;5162873;28;20057;-68
2023/05/04 02:44:29;;;;;;;2.95;1.83;;;9.40;99.90;;;9.48;96.15;101543.38;5164372;28;20045;-68
2023/05/04 02:47:02;;;;;;;1.90;1.70;;;9.40;99.90;;;9.42;96.40;101550.88;5163398;28;20137;-67
2023/05/04 02:49:35;;;;;;;2.90;2.00;;;9.30;99.90;;;9.39;96.39;101555.94;5163046;28;20050;-68
2023/05/04 02:52:07;;;;;;;2.38;1.90;;;9.30;99.90;;;9.37;96.12;101551.44;5162864;28;20116;-68
2023/05/04 02:54:40;;;;;;;3.05;1.60;;;9.30;99.90;;;9.33;96.14;101547.81;5163220;28;20046;-68
2023/05/04 02:57:12;;;;;;;4.15;2.08;;;9.30;99.90;;;9.31;96.23;101543.31;5163139;28;20042;-69
2023/05/04 02:59:45;;;;;;;2.15;1.90;;;9.20;99.90;;;9.28;96.07;101546.66;5156638;28;20046;-68
2023/05/04 03:02:17;;;;;;;2.08;1.88;;;9.20;99.90;;;9.24;95.86;101549.91;5163656;28;20050;-68
2023/05/04 03:04:49;;;;;;;3.28;1.80;;;9.10;99.90;;;9.17;96.33;101548.69;5163163;28;20129;-67
2023/05/04 03:07:21;;;;;;;2.65;1.95;;;9.10;99.90;;;9.15;96.69;101544.25;5163982;28;20042;-69
2023/05/04 03:09:55;;;;;;;2.40;1.67;;;9.10;99.90;;;9.14;97.20;101543.34;5162885;28;20042;-68
2023/05/04 03:12:27;;;;;;;2.40;1.52;;;9.10;99.90;;;9.13;97.57;101538.06;5163583;28;20049;-68
2023/05/04 03:14:59;;;;;;;2.70;2.25;;;9.10;99.90;;;9.12;97.41;101533.66;5163927;28;20088;-68
2023/05/04 03:17:31;;;;;;;2.90;2.50;;;9.00;99.90;;;9.08;97.19;101532.63;5163889;28;20466;-68
2023/05/04 03:20:04;;;;;;;3.20;2.45;;;9.00;99.90;;;9.02;97.37;101526.22;5164094;28;20342;-67
2023/05/04 03:22:37;;;;;;;4.22;2.58;;;9.00;99.90;;;8.96;97.78;101527.66;5161920;28;20042;-68
2023/05/04 03:25:11;;;;;;;6.55;3.00;;;8.90;99.90;;;8.95;98.20;101525.88;5162465;28;20043;-68
2023/05/04 03:27:44;;;;;;;7.18;4.03;;;8.90;99.90;;;8.96;98.78;101519.88;5162232;28;20061;-67
2023/05/04 03:30:17;;;;;;;6.03;3.30;;;8.90;99.90;;;8.96;98.10;101512.06;5163666;28;20042;-68
2023/05/04 03:32:51;;;;;;;5.68;3.30;;;8.90;99.90;;;8.92;97.77;101519.59;5162089;28;20042;-68
2023/05/04 03:35:23;;;;;;;4.65;2.80;;;8.80;99.90;;;8.86;97.72;101514.09;5162354;28;20455;-68
2023/05/04 03:37:55;;;;;;;4.53;2.65;;;8.80;99.90;;;8.82;98.03;101507.84;5162443;28;20052;-68
2023/05/04 03:40:30;;;;;;;3.58;2.03;;;8.80;99.90;;;8.80;97.94;101508.56;5161748;28;20411;-67
2023/05/04 03:43:02;;;;;;;3.42;2.13;;;8.80;99.90;;;8.82;97.67;101507.84;5162100;28;20125;-68
2023/05/04 03:45:34;;;;;;;2.80;2.25;;;8.80;99.90;;;8.86;96.96;101509.78;5161924;28;20054;-69
2023/05/04 03:48:06;;;;;;;3.97;2.53;;;8.80;99.90;;;8.87;96.58;101505.50;5162223;28;20068;-68
2023/05/04 03:50:38;;;;;;;3.45;2.55;;;8.80;99.90;;;8.83;96.77;101504.44;5162076;28;20131;-68
2023/05/04 03:53:10;;;;;;;2.55;1.67;;;8.80;99.90;;;8.80;97.03;101504.28;5163317;28;20424;-68
2023/05/04 03:55:45;;;;;;;2.92;2.63;;;8.70;99.90;;;8.75;98.03;101505.75;5161703;28;20073;-68
2023/05/04 03:58:17;;;;;;;3.08;2.00;;;8.70;99.90;;;8.71;98.46;101498.56;5163434;28;20085;-68
2023/05/04 04:00:49;;;;;;;3.25;2.15;;;8.70;99.90;;;8.68;99.12;101491.53;5161794;28;20045;-69
2023/05/04 04:03:21;;;;;;;3.28;2.05;;;8.60;99.90;;;8.66;99.96;101500.91;5161460;28;20451;-68
2023/05/04 04:05:53;;;;;;;3.25;2.35;;;8.60;99.90;;;8.62;100.00;101495.50;5163406;28;20046;-68
2023/05/04 04:08:25;;;;;;;3.05;1.90;;;8.60;99.90;;;8.58;100.00;101490.94;5161725;28;20049;-67
2023/05/04 04:10:59;;;;;;;3.50;2.30;;;8.50;99.90;;;8.54;100.00;101494.16;5162515;28;20046;-68
2023/05/04 04:13:31;;;;;;;4.15;1.73;;;8.50;99.90;;;8.51;100.00;101489.72;5161673;28;20470;-67
2023/05/04 04:16:04;;;;;;;3.13;2.20;;;8.50;99.90;;;8.49;100.00;101493.94;5163429;28;20046;-68
2023/05/04 04:18:36;;;;;;;3.45;1.80;;;8.50;99.90;;;8.52;100.00;101490.59;5161663;28;20047;-68
2023/05/04 04:21:09;;;;;;;3.00;2.15;;;8.50;99.90;;;8.53;100.00;101502.78;5163002;28;20060;-69
2023/05/04 04:23:41;;;;;;;4.07;2.03;;;8.50;99.90;;;8.52;100.00;101501.00;5163266;28;20043;-68
2023/05/04 04:26:14;;;;;;;3.53;2.30;;;8.50;99.90;;;8.52;100.00;101506.19;5164454;28;20049;-68
2023/05/04 04:28:49;;;;;;;5.45;2.20;;;8.50;99.90;;;8.50;100.00;101502.63;5164252;28;20131;-68
2023/05/04 04:31:21;;;;;;;3.55;2.30;;;8.50;99.90;;;8.49;100.00;101513.84;5162856;28;20043;-67
2023/05/04 04:33:53;;;;;;;5.65;2.42;;;8.50;99.90;;;8.49;100.00;101512.13;5163841;28;20043;-68
2023/05/04 04:36:25;;;;;;;3.00;2.08;;;8.50;99.90;;;8.49;100.00;101506.03;5163402;28;20073;-68
2023/05/04 04:38:57;;;;;;;3.63;2.60;;;8.50;99.90;;;8.49;100.00;101513.84;5167341;28;20058;-69
2023/05/04 04:41:31;;;;;;;5.65;2.40;;;8.50;99.90;;;8.53;100.00;101510.56;5166572;28;20050;-66
2023/05/04 04:44:03;;;;;;;2.90;2.30;;;8.50;99.90;;;8.57;100.00;101509.94;5166606;28;20534;-66
2023/05/04 04:46:35;;;;;;;3.20;2.30;;;8.50;99.90;;;8.60;100.00;101515.28;5180078;23;20049;-69
2023/05/04 04:49:07;;;;;;;4.25;2.22;;;8.60;99.90;;;8.61;100.00;101512.81;5182450;28;20051;-70
2023/05/04 04:51:40;;;;;;;3.60;2.70;;;8.50;99.90;;;8.64;100.00;101512.06;5167320;28;20069;-70
2023/05/04 04:54:13;;;;;;;3.00;2.40;;;8.60;99.90;;;8.65;100.00;101509.53;5167199;28;20450;-70
2023/05/04 04:56:46;;;;;;;3.90;1.92;;;8.60;99.90;;;8.67;100.00;101512.22;5167133;28;20432;-69
2023/05/04 04:59:19;;;;;;;3.90;2.10;;;8.60;99.90;;;8.70;100.00;101513.28;5167091;28;20518;-70
2023/05/04 05:01:51;;;;;;;3.75;2.22;;;8.70;99.90;;;8.76;100.00;101517.03;5166788;28;20120;-71
2023/05/04 05:04:24;;;;;;;2.80;2.10;;;8.70;99.90;;;8.80;100.00;101514.69;5166763;28;20051;-71
2023/05/04 05:06:56;;;;;;;3.30;2.70;;;8.70;99.90;;;8.84;100.00;101520.91;5166436;28;20050;-72
2023/05/04 05:09:29;;;;;;;4.07;2.35;;;8.80;99.90;;;8.89;100.00;101522.97;5166431;28;20069;-72
2023/05/04 05:12:03;;;;;;;3.25;2.28;;;8.80;99.90;;;8.94;100.00;101523.22;5166326;28;20129;-72
2023/05/04 05:14:37;;;;;;;4.10;2.60;;;8.90;99.90;;;9.00;100.00;101523.53;5163857;28;20061;-73
2023/05/04 05:17:10;;;;;;;4.82;2.53;;;8.90;99.90;;;9.13;100.00;101519.88;5164505;28;20042;-72
2023/05/04 05:19:43;;;;;;;4.57;2.90;;;9.00;99.90;;;9.34;100.00;101526.19;5165572;28;20075;-72
2023/05/04 05:22:16;;;;;;;3.08;2.35;;;9.20;99.90;;;9.63;100.00;101526.75;5164288;28;20066;-70
2023/05/04 05:24:48;;;;;;;6.40;3.40;;;9.50;99.90;;;10.01;100.00;101529.53;5166350;28;20050;-72
2023/05/04 05:27:22;;;;;;;5.68;2.67;;;9.70;99.90;;;10.45;100.00;101533.41;5166241;28;20503;-72
2023/05/04 05:29:54;;;;;;;6.22;2.50;;;10.10;99.90;;;10.92;98.49;101526.88;5166280;28;20046;-72
2023/05/04 05:32:26;;;;;;;4.63;2.67;;;10.50;99.90;;;11.40;93.61;101535.06;5164706;28;20046;-71
2023/05/04 05:34:58;;;;;;;5.53;3.28;;;10.90;99.90;;;11.89;90.68;101535.44;5166031;28;20042;-71
2023/05/04 05:37:31;;;;;;;4.00;2.60;;;11.40;99.90;;;12.35;86.66;101531.19;5166394;28;20049;-73
2023/05/04 05:40:06;;;;;;;5.35;2.58;;;11.80;99.90;;;12.83;83.45;101528.63;5165566;28;20046;-73
2023/05/04 05:42:41;;;;;;;5.05;2.15;;;12.30;99.90;;;13.16;80.38;101516.78;5164738;28;20050;-73
2023/05/04 05:45:13;;;;;;;;;;;12.60;99.90;;;13.34;79.05;101507.84;5165218;28;20483;-72
2023/05/04 05:47:45;;;;;;;3.47;2.10;;;12.90;99.90;;;13.73;77.10;101511.81;5164033;28;20382;-72
2023/05/04 05:50:18;;;;;;;3.65;2.28;;;13.20;98.80;;;14.13;76.62;101508.75;5152617;28;20117;-70
2023/05/04 05:52:50;;;;;;;2.88;2.10;;;13.60;98.40;;;14.53;75.09;101509.13;5157110;28;20132;-60
2023/05/04 05:55:22;;;;;;;4.05;2.10;;;13.90;97.80;;;14.81;73.46;101503.84;5158689;28;20487;-60
2023/05/04 05:57:56;;;;;;;4.22;1.83;;;14.30;96.70;;;15.01;72.12;101500.91;5160794;28;20035;-61
2023/05/04 06:00:28;;;;;;;6.50;2.10;;;14.50;95.70;;;15.21;71.41;101502.34;5170719;28;20038;-61
2023/05/04 06:03:00;;;;;;;3.45;1.90;;;14.70;94.90;;;15.35;70.33;101506.22;5162492;28;20487;-62
2023/05/04 06:05:34;;;;;;;5.25;2.17;;;14.80;94.10;;;15.41;69.26;101511.63;5161449;28;20043;-60
2023/05/04 06:08:06;;;;;;;3.55;2.00;;;14.90;93.20;;;15.32;68.02;101503.53;5165572;28;20092;-60
2023/05/04 06:10:38;;;;;;;2.20;1.60;;;15.00;92.00;;;15.29;68.08;101505.16;5165261;28;20388;-59
2023/05/04 06:13:11;;;;;;;3.28;1.92;;;15.00;91.70;;;14.99;67.98;101499.94;5165666;28;20046;-59
2023/05/04 06:15:52;;;;;;;4.43;2.22;;;14.80;91.10;;;14.73;68.11;101492.22;5165034;28;20046;-59
2023/05/04 06:18:24;;;;;;;3.45;1.98;;;14.60;91.00;;;14.56;68.43;101493.47;5165105;28;20130;-58
2023/05/04 06:20:59;;;;;;;5.05;1.88;;;14.40;91.00;;;14.49;68.59;101487.16;5165268;28;20046;-58
2023/05/04 06:23:32;;;;;;;3.42;1.92;;;14.30;91.10;;;14.49;69.55;101491.53;5165013;28;20085;-59
2023/05/04 06:26:06;;;;;;;2.03;1.60;;;14.30;91.50;;;14.67;69.79;101481.56;5164920;28;20042;-60
2023/05/04 06:28:40;;;;;;;3.22;2.25;;;14.40;92.00;;;14.82;69.94;101484.63;5164803;28;20462;-59
2023/05/04 06:31:12;;;;;;;2.47;1.70;;;14.50;91.90;;;15.05;69.84;101487.00;5164772;28;20077;-59
2023/05/04 06:33:44;;;;;;;2.78;2.00;;;14.70;92.10;;;15.27;70.84;101489.38;5164797;28;20047;-58
2023/05/04 06:36:16;;;;;;;5.25;1.92;;;14.80;92.70;;;15.36;69.33;101486.97;5164753;28;20034;-60
2023/05/04 06:38:48;;;;;;;3.50;2.40;;;14.90;92.00;;;15.42;67.97;101481.88;5163329;28;20514;-59
2023/05/04 06:41:20;;;;;;;3.70;2.00;;;15.00;91.10;;;15.54;67.57;101485.69;5165106;28;20057;-59
2023/05/04 06:43:54;;;;;;;3.90;2.00;;;15.10;90.80;;;15.67;66.99;101472.91;5164673;28;20050;-59
2023/05/04 06:46:26;;;;;;;4.38;2.47;;;15.20;90.40;;;15.72;66.58;101480.94;5164445;28;20526;-57
2023/05/04 06:48:58;;;;;;;3.38;2.15;;;15.30;90.00;;;15.78;66.40;101481.06;5163160;28;20499;-59
2023/05/04 06:51:30;;;;;;;4.53;2.00;;;15.30;89.70;;;15.96;67.07;101476.22;5164544;28;20459;-59
2023/05/04 06:54:02;;;;;;;4.20;2.05;;;15.50;90.10;;;16.11;66.88;101474.84;5164520;28;20056;-59
2023/05/04 06:56:34;;;;;;;8.20;2.78;;;15.60;90.10;;;16.44;66.68;101480.84;5164364;28;20415;-60
2023/05/04 06:59:08;;;;;;;3.53;1.95;;;15.80;90.10;;;16.75;64.88;101478.88;5163941;28;20073;-60
2023/05/04 07:01:41;;;;;;;4.18;2.03;;;16.10;88.30;;;16.95;63.86;101480.19;5163059;28;20201;-59
2023/05/04 07:04:15;;;;;;;3.90;2.05;;;16.30;86.60;;;17.09;62.75;101483.09;5164404;28;20054;-58
2023/05/04 07:06:47;;;;;;;4.57;2.20;;;16.50;84.90;;;17.22;62.64;101481.56;5164059;28;20051;-60
2023/05/04 07:09:19;;;;;;;6.15;2.20;;;16.60;84.20;;;17.44;62.53;101480.19;5164222;28;20065;-59
2023/05/04 07:11:51;;;;;;;7.50;2.13;;;16.80;83.90;;;17.58;61.44;101479.56;5164042;28;20124;-59
2023/05/04 07:14:25;;;;;;;5.30;2.13;;;17.00;82.30;;;17.67;60.86;101481.50;5164002;28;20047;-58
2023/05/04 07:16:57;;;;;;;3.17;2.10;;;17.10;81.50;;;17.76;60.42;101475.50;5163579;28;20503;-59
2023/05/04 07:19:29;;;;;;;2.97;2.30;;;17.20;80.40;;;17.86;60.11;101466.84;5164201;28;20042;-59
2023/05/04 07:22:01;;;;;;;2.83;2.08;;;17.30;79.80;;;17.97;60.19;101467.91;5163392;28;20042;-58
2023/05/04 07:24:33;;;;;;;2.90;1.90;;;17.40;79.90;;;18.11;59.78;101465.47;5163070;28;20062;-57
2023/05/04 07:27:05;;;;;;;3.13;1.85;;;17.50;79.20;;;18.27;59.75;101464.84;5162618;28;20050;-58
2023/05/04 07:29:40;;;;;;;3.55;1.83;;;17.70;79.00;;;18.49;59.58;101458.09;5162646;28;20454;-57
2023/05/04 07:32:12;;;;;;;4.80;2.20;;;17.80;78.70;;;18.65;58.38;101473.28;5162640;28;20555;-58
2023/05/04 07:34:45;;;;;;;2.92;2.20;;;18.00;77.40;;;18.55;58.70;101463.44;5162951;28;20089;-59
2023/05/04 07:37:17;;;;;;;3.92;2.15;;;18.00;77.10;;;18.48;58.84;101463.34;5162638;28;20046;-59
2023/05/04 07:39:50;;;;;;;2.75;2.05;;;18.00;76.80;;;18.46;59.23;101452.78;5162402;28;20042;-59
2023/05/04 07:42:22;;;;;;;4.78;2.70;;;17.90;77.00;;;18.63;59.42;101455.63;5158520;28;20042;-59
2023/05/04 07:44:55;;;;;;;4.88;2.08;;;18.10;77.30;;;18.93;58.90;101452.50;5165756;28;20121;-59
2023/05/04 07:47:28;;;;;;;4.28;2.20;;;18.20;77.10;;;19.11;57.90;101444.78;5162766;28;20048;-59
2023/05/04 07:50:00;;;;;;;3.70;2.50;;;18.40;75.80;;;19.19;57.50;101448.38;5162419;28;20057;-59
2023/05/04 07:52:32;;;;;;;4.28;2.45;;;18.50;75.20;;;19.15;57.64;101446.56;5162470;28;20121;-59
2023/05/04 07:55:06;;;;;;;3.00;2.30;;;18.50;74.70;;;19.28;58.34;101438.75;5162799;28;20046;-59
2023/05/04 07:57:38;;;;;;;3.83;2.30;;;18.60;76.00;;;19.59;57.70;101437.28;5154593;28;20065;-63
2023/05/04 08:00:14;;;;;;;4.10;2.50;;;18.90;75.20;;;19.70;56.65;101438.28;5159847;28;20054;-61
2023/05/04 08:02:46;;;;;;;3.95;2.20;;;19.00;73.60;;;19.92;56.41;101439.31;5156112;28;21617;-60
2023/05/04 08:05:19;;;;;;;2.47;2.28;;;19.10;73.30;;;20.17;55.89;101432.41;5167845;28;20039;-60
2023/05/04 08:07:51;;;;;;;4.55;2.38;;;19.30;72.70;;;20.34;54.99;101430.72;5161590;28;20038;-61
2023/05/04 08:10:23;;;;;;;5.78;3.25;;;19.40;71.90;;;20.57;54.54;101422.91;5160790;28;20499;-60
2023/05/04 08:12:55;;;;;;;5.75;2.67;;;19.60;71.20;;;20.86;54.04;101422.97;5161231;28;20042;-61
2023/05/04 08:15:29;;;;;;;3.92;2.40;;;19.70;71.10;;;21.18;53.53;101420.41;5160381;28;20061;-61
2023/05/04 08:18:01;;;;;;;6.38;2.72;;;19.90;70.50;;;21.56;52.85;101408.94;5160056;28;20100;-60
2023/05/04 08:20:33;;;;;;;3.20;2.15;;;20.10;70.00;;;22.21;52.36;101415.94;5160848;28;20054;-60
2023/05/04 08:23:06;;;;;;;4.03;2.20;;;20.40;70.00;;;22.60;51.20;101424.63;5162285;28;20411;-60
2023/05/04 08:25:38;;;;;;;4.53;2.33;;;20.70;68.70;;;22.81;50.67;101413.88;5160282;28;20044;-58
2023/05/04 08:28:11;;;;;;;7.50;2.47;;;20.80;68.10;;;23.26;49.30;101406.53;5163359;28;20073;-59
2023/05/04 08:30:44;;;;;;;3.28;2.00;;;21.10;67.00;;;24.21;49.02;101409.19;5162478;28;20050;-59
2023/05/04 08:33:18;;;;;;;2.63;1.80;;;21.50;67.80;;;25.50;46.88;101408.28;5162614;28;20046;-59
2023/05/04 08:35:50;;;;;;;;;;;22.30;66.10;;;26.84;45.01;101412.75;5161591;28;20044;-59
2023/05/04 08:38:22;;;;;;;5.75;2.35;;;23.20;64.20;;;27.38;43.38;101401.66;5161047;28;19929;-59
2023/05/04 08:40:55;;;;;;;3.08;2.30;;;23.90;61.50;;;27.94;42.27;101409.19;5160434;28;20045;-58
2023/05/04 08:43:28;;;;;;;2.58;2.00;;;24.60;59.40;;;28.16;41.78;101404.97;5160897;28;20064;-59
2023/05/04 08:46:03;;;;;;;3.90;2.00;;;25.00;58.40;;;28.44;41.50;101398.84;5152745;28;20430;-60
2023/05/04 08:48:36;;;;;;;3.80;2.22;;;25.40;57.60;;;29.39;40.34;101396.72;5161684;28;20070;-61
2023/05/04 08:51:09;;;;;;;3.50;1.90;;;26.20;56.50;;;29.50;40.53;101399.03;5161771;28;20121;-60
2023/05/04 08:53:45;;;;;;;3.47;2.00;;;26.30;55.80;;;29.78;39.79;101398.97;5160516;28;20052;-60
2023/05/04 08:56:18;;;;;;;2.90;2.20;;;26.70;55.10;;;29.67;39.77;101384.13;5162050;28;20140;-59
2023/05/04 08:58:52;;;;;;;4.75;2.05;;;26.70;54.30;;;29.10;40.30;101389.66;5161704;28;20503;-60
2023/05/04 09:01:25;;;;;;;;;;;26.40;54.20;;;28.72;40.56;101386.34;5160024;28;20050;-59
2023/05/04 09:04:01;;;;;;;3.80;2.38;;;26.20;54.40;;;28.63;41.08;101378.59;5161293;28;19921;-60
2023/05/04 09:06:33;;;;;;;4.85;2.10;;;26.10;54.70;;;28.66;42.08;101383.84;5161560;28;20046;-59
2023/05/04 09:09:05;;;;;;;4.13;2.20;;;26.10;55.50;;;28.38;42.27;101371.28;5161867;28;20057;-58
2023/05/04 09:11:38;;;;;;;4.07;2.08;;;25.90;55.30;;;28.31;42.47;101374.22;5161226;28;20434;-60
2023/05/04 09:14:10;;;;;;;2.80;2.22;;;25.90;55.40;;;28.22;42.54;101371.75;5161821;28;20049;-58
2023/05/04 09:16:43;;;;;;;4.13;2.50;;;26.00;55.60;;;27.66;42.81;101366.16;5160672;28;20050;-59
2023/05/04 09:19:20;;;;;;;5.65;2.63;;;25.80;55.30;;;27.13;44.07;101361.28;5160300;28;20049;-59
2023/05/04 09:21:53;;;;;;;4.45;2.15;;;25.60;56.00;;;26.75;44.69;101364.84;5161644;28;20417;-58
2023/05/04 09:24:29;;;;;;;3.72;2.50;;;25.40;56.20;;;26.36;45.28;101361.25;5165714;28;20047;-59
2023/05/04 09:27:11;;;;;;;2.38;1.75;;;25.20;56.50;;;26.12;46.87;101360.81;5164912;28;20053;-58
2023/05/04 09:29:43;;;;;;;5.53;2.55;;;25.00;57.80;;;25.79;46.68;101358.84;5164399;28;20137;-57
2023/05/04 09:32:17;;;;;;;4.10;2.70;;;24.90;57.30;;;25.40;47.21;101361.28;5163160;28;20042;-59
2023/05/04 09:34:50;;;;;;;;;;;24.50;57.70;;;24.93;47.71;101370.94;5165274;28;20050;-58
2023/05/04 09:37:23;;;;;;;3.83;2.10;;;24.20;57.80;;;24.74;48.84;101356.13;5164886;28;19921;-59
2023/05/04 09:39:57;;;;;;;3.15;2.45;;;24.00;58.80;;;24.62;48.60;101347.38;5164769;28;20050;-60
2023/05/04 09:42:29;;;;;;;4.28;2.50;;;23.80;58.80;;;24.24;48.76;101353.19;5164629;28;20054;-59
2023/05/04 09:45:02;;;;;;;3.83;2.80;;;23.50;58.90;;;23.91;49.26;101341.16;5164109;28;20507;-63
2023/05/04 09:47:38;;;;;;;4.82;2.42;;;23.30;59.30;;;23.73;49.90;101330.72;5164421;28;20050;-63
2023/05/04 09:50:15;;;;;;;4.60;2.55;;;23.10;59.80;;;23.68;49.59;101324.59;5162474;28;20034;-63
2023/05/04 09:52:48;;;;;;;3.75;2.00;;;23.00;59.70;;;23.86;50.49;101332.34;5161454;28;20054;-64
2023/05/04 09:55:21;;;;;;;3.30;2.60;;;23.10;60.50;;;23.75;49.61;101323.63;5160453;28;20046;-63
2023/05/04 09:57:53;;;;;;;3.80;2.35;;;23.00;59.70;;;23.80;50.27;101319.13;5161501;28;20130;-63
2023/05/04 10:00:26;;;;;;;4.35;2.85;;;23.00;60.40;;;23.84;49.13;101315.53;5162417;28;20135;-63
2023/05/04 10:03:03;;;;;;;4.50;2.40;;;23.10;59.40;;;23.90;49.39;101315.44;5162798;28;20335;-64
2023/05/04 10:05:38;;;;;;;4.05;2.45;;;23.10;59.50;;;23.95;48.50;101308.31;5164893;28;20128;-64
2023/05/04 10:08:12;;;;;;;4.20;2.17;;;23.10;59.20;;;23.87;48.31;101299.53;5165553;28;20049;-62
2023/05/04 10:10:44;;;;;;;4.65;2.08;;;23.10;59.40;;;23.91;48.57;101301.25;5163842;28;20069;-64
2023/05/04 10:13:16;;;;;;;3.45;2.40;;;23.10;59.00;;;23.90;48.37;101298.59;5165092;28;20050;-63
2023/05/04 10:16:08;;;;;;;2.42;2.22;;;23.10;58.70;;;23.96;48.79;101287.88;5163252;28;20117;-61
2023/05/04 10:19:04;;;;;;;5.70;2.38;;;23.20;59.00;;;23.89;47.96;101297.72;5160498;28;20049;-62
2023/05/04 10:21:51;;;;;;;2.75;1.95;;;23.10;58.50;;;23.76;48.04;101280.13;5160550;28;20467;-60
2023/05/04 10:25:01;;;;;;;3.25;2.15;;;23.10;58.90;;;23.63;47.82;101278.50;5176799;28;20054;-62
2023/05/04 10:27:50;;;;;;;2.85;2.28;;;23.00;57.90;;;23.47;47.60;101291.97;5151595;28;20750;-60
2023/05/04 10:30:23;;;;;;;4.55;2.40;;;22.90;57.80;;;23.29;47.35;101269.09;5161532;28;20053;-61
2023/05/04 10:32:57;;;;;;;3.58;2.25;;;22.70;57.40;;;23.20;47.66;101265.63;5162247;28;20289;-59
2023/05/04 10:35:31;;;;;;;4.97;2.30;;;22.70;57.60;;;23.46;48.52;101268.88;5160999;28;20178;-60
2023/05/04 10:38:03;;;;;;;3.22;2.15;;;22.80;58.50;;;23.68;46.98;101266.91;5163439;28;20323;-62
2023/05/04 10:40:37;;;;;;;3.88;2.10;;;23.00;57.30;;;23.84;46.87;101259.63;5163309;28;20474;-59
2023/05/04 10:43:12;;;;;;;4.10;2.00;;;23.10;57.50;;;24.02;48.04;101246.06;5164248;28;20462;-63